Terminal Aerodrome Forecast
Issued by NWS

Home | Current Version | Previous Version | Text Only | Print | Product List | Glossary On
Versions: 1 2 3 4 5 6 7 8 9 10 11 12 13
000
FTUS41 KCAR 012320
TAFHUL
TAF
KHUL 012320Z 0200/0224 23004KT P6SM BKN090 OVC180
     FM020500 17006KT P6SM -RA OVC040
     FM021300 14006KT 5SM -RA BR OVC035
     FM021600 13007KT 3SM -RA BR OVC025
     FM022100 15008KT 5SM -RA BR OVC015=

USA.gov is the U.S. government's official web portal to all federal, state and local government web resources and services.